CHIUDI BANNER

Seguici su twitter Seguici su facebook
LIVE Streaming HD
Get Adobe Flash player
Dati meteo stazione (refresh automatico ogni minuto)
Ostia(RM) VENTO: VELOCITÀ   PIOGGIA: QTA GIORNO TEMPERATURA: ATTUALE
SPOT: Kursaal Lido Ostia ---- Posizione su Googlemap:Latitudine: 41.71N Longitudine: 12.31E RAFFICA MASSIMA: QTA MENSILE: MASSIMA:
VELOCITÀ MEDIA: QTA ANNUALE: MINIMA:
DIREZIONE: UMIDITÀ: WIND CHILL:
TIPO: DEW POINT:
BEAUFORT: PRESSIONE:
I nostri partner
Ostia(RM) nelle ultime ore
Applica filtri in visualizzazione Intervallo delle letture nelle ultime

Ora Direzione Vento Velocita' Vento Media Vento Raffica Max. Temperatura Wind Chill Pioggia Pressione
17:58:46317 °(NW)0 Kts3.5 Kts14.8 Kts19.6 °C19.6 °C0 mm1016.5 Hpa
17:54:10337 °(NNW)0.9 Kts4.3 Kts14.8 Kts19.7 °C18.9 °C0 mm1016.7 Hpa
17:49:01314 °(NW)3.5 Kts5.2 Kts14.8 Kts19.8 °C18.6 °C0 mm1016.6 Hpa
17:43:58328 °(NNW)4.3 Kts5.2 Kts14.8 Kts19.9 °C18.7 °C0 mm1016.5 Hpa
17:39:01316 °(NW)4.3 Kts4.3 Kts14.8 Kts20.1 °C19.4 °C0 mm1016.4 Hpa
17:33:46330 °(NNW)3.5 Kts4.3 Kts14.8 Kts20.3 °C19.6 °C0 mm1016.5 Hpa
17:29:00342 °(NNW)0.9 Kts4.3 Kts14.8 Kts20.4 °C19.7 °C0 mm1016.5 Hpa
17:23:40338 °(NNW)0 Kts5.2 Kts14.8 Kts20.6 °C19.4 °C0 mm1016.4 Hpa
17:18:59312 °(NW)3.5 Kts5.2 Kts14.8 Kts20.7 °C19.5 °C0 mm1016.4 Hpa
17:13:45320 °(NW)3.5 Kts6.1 Kts14.8 Kts20.7 °C19.3 °C0 mm1016.2 Hpa
17:08:59303 °(WNW)5.2 Kts6.1 Kts14.8 Kts20.9 °C19.4 °C0 mm1016.4 Hpa
17:03:27319 °(NW)7 Kts7 Kts14.8 Kts21 °C19 °C0 mm1016.2 Hpa
16:58:45335 °(NNW)7 Kts6.1 Kts14.8 Kts21.3 °C19.8 °C0 mm1016.3 Hpa
16:54:03316 °(NW)6.1 Kts6.1 Kts14.8 Kts21.2 °C19.7 °C0 mm1016.3 Hpa
16:48:45291 °(WNW)7.8 Kts7 Kts14.8 Kts21.3 °C19.2 °C0 mm1016.2 Hpa
16:43:53320 °(NW)0.9 Kts7.8 Kts14.8 Kts21.2 °C19 °C0 mm1016.3 Hpa
16:38:04324 °(NW)6.1 Kts6.1 Kts14.8 Kts21.6 °C20.1 °C0 mm1016.2 Hpa
16:34:01327 °(NNW)6.1 Kts6.1 Kts14.8 Kts21.7 °C20.2 °C0 mm1016.2 Hpa
16:28:41305 °(NW)7 Kts7 Kts14.8 Kts21.8 °C19.9 °C0 mm1016.2 Hpa
16:23:58347 °(NNW)5.2 Kts6.1 Kts14.8 Kts21.9 °C20.5 °C0 mm1016.3 Hpa
16:18:39316 °(NW)7.8 Kts5.2 Kts14.8 Kts53.9 °C53.9 °C0 mm1016.2 Hpa
16:14:01354 °(N)4.3 Kts4.3 Kts14.8 Kts53.9 °C53.9 °C0 mm1016.2 Hpa
16:08:47326 °(NW)6.1 Kts3.5 Kts14.8 Kts54.2 °C54.2 °C0 mm1016.3 Hpa
16:04:088 °(N)3.5 Kts5.2 Kts14.8 Kts53.9 °C53.9 °C0 mm1016.2 Hpa